Aurora, CO (80014)

9:51 AM MDT on April 18, 2015 (GMT -0600)
The Dam East | | Change Station
CLOSE
Current Station
Personal Weather Station
Location: Aurora, CO
Elevation: 5656 ft
Nearby Weather Stations

Elev 5656 ft 39.66 °N, 104.84 °W | Updated 17 seconds ago

Overcast
Overcast
43.1 °F
Feels Like 43 °F
N
0.0
Wind Variable Wind from WNW

Today
High -- | Low -- °F
--% Chance of Precip.
Yesterday
High -- | Low -- °F
Precip. -- in
6:17 AM 7:40 PM
Waning Crescent, 0% visible
Pressure 29.95 in
Visibility 7.0 miles
Clouds Few 800 ft
Scattered Clouds 1200 ft
Mostly Cloudy 1800 ft
Overcast 2500 ft
Windchill 43 °F
Dew Point 39 °F
Humidity 85%
Rainfall 0.00 in
Snow Depth Not available.
UV 1 out of 12
Pollen 6.20 out of 12
Air Quality Not available.
Flu Activity Local Activity
SPECI KBKF 181520Z 35003KT 7SM FEW008 SCT012 BKN018 OVC025 04/04 A2995 RMK AO2A

More Conditions Fewer Conditions

Pressure 29.95 in
Visibility 7.0 miles
Clouds Few 800 ft
Scattered Clouds 1200 ft
Mostly Cloudy 1800 ft
Overcast 2500 ft
Windchill 43 °F
Dew Point 39 °F
Humidity 85%
Rainfall 0.00 in
Snow Depth Not available.
UV 1 out of 12
Pollen 6.20 out of 12
Air Quality Not available.
Flu Activity Local Activity
SPECI KBKF 181520Z 35003KT 7SM FEW008 SCT012 BKN018 OVC025 04/04 A2995 RMK AO2A

More Conditions Fewer Conditions

Nowcast | as of 9:11 am MDT on April 18, 2015

Isolated light rain showers will continue along the Front Range through noon. The showers will be most numerous near the foothills and south of Denver. A few heavier showers in Douglas and Elbert counties could produce a dusting of snow.

×

10-Day Weather Forecast

Almanac

Astronomy

Apr. 18, 2015 Rise Set
Actual Time
Civil Twilight
Nautical Twilight
Astronomical Twilight
Moon
Length of Visible Light
Length of Day
Tomorrow will be .
, % of the Moon is Illuminated

Today's Extremes

State Highs State Lows

Community

WunderPhotos

Upload Photos

1,814,439 photos uploaded!

WunderBlogs® & News

Nearby

Air Quality

  Air Quality AQ Index Pollutant
Not available.

Snow Depth

Station Depth Elevation

Earthquake Activity

City Distance Mag. Time & Date
Minimum magnitude displayed is 2.5.

Coastal Water Temperatures

Place Temperature

Stations

Nearby Weather Stations

Station Location Temp. Windchill Dew Point Humidity Wind Precip. Elev Updated Type